createdAt,value
2018-01-20T00:00:05.878Z,0.50
2018-01-20T00:01:05.653Z,0.50
2018-01-20T00:02:05.086Z,0.50
2018-01-20T00:03:05.651Z,0.50
2018-01-20T00:04:05.275Z,0.50
2018-01-20T00:05:11.166Z,0.50
2018-01-20T00:06:08.004Z,0.50
2018-01-20T00:07:07.752Z,0.50
2018-01-20T00:08:06.173Z,0.50
2018-01-20T00:09:05.909Z,0.50
2018-01-20T00:10:05.455Z,0.50
2018-01-20T00:11:05.945Z,0.50
2018-01-20T00:12:05.635Z,0.50
2018-01-20T00:13:07.708Z,0.50
2018-01-20T00:14:05.984Z,0.40
2018-01-20T00:15:05.883Z,0.50
2018-01-20T00:16:07.922Z,0.40
2018-01-20T00:17:07.870Z,0.40
2018-01-20T00:18:05.315Z,0.40
2018-01-20T00:19:08.411Z,0.40
2018-01-20T00:20:05.519Z,0.40
2018-01-20T00:21:06.085Z,0.40
2018-01-20T00:22:05.773Z,0.40
2018-01-20T00:23:07.815Z,0.40
2018-01-20T00:24:05.989Z,0.40
2018-01-20T00:25:08.562Z,0.40
2018-01-20T00:26:11.127Z,0.40
2018-01-20T00:27:10.440Z,0.40
2018-01-20T00:28:05.773Z,0.40
2018-01-20T00:29:10.445Z,0.40
2018-01-20T00:30:05.924Z,0.40
2018-01-20T00:31:10.642Z,0.40
2018-01-20T00:32:06.262Z,0.40
2018-01-20T00:33:08.556Z,0.40
2018-01-20T00:34:10.973Z,0.40
2018-01-20T00:35:07.891Z,0.30
2018-01-20T00:36:05.353Z,0.40
2018-01-20T00:37:05.815Z,0.40
2018-01-20T00:38:08.033Z,0.40
2018-01-20T00:39:07.933Z,0.30
2018-01-20T00:40:07.898Z,0.40
2018-01-20T00:41:07.766Z,0.30
2018-01-20T00:42:07.846Z,0.30
2018-01-20T00:43:05.338Z,0.40
2018-01-20T00:44:06.149Z,0.30
2018-01-20T00:45:08.085Z,0.30
2018-01-20T00:46:07.919Z,0.30
2018-01-20T00:47:10.413Z,0.30
2018-01-20T00:48:05.753Z,0.30
2018-01-20T00:49:05.402Z,0.30
2018-01-20T00:50:05.932Z,0.30
2018-01-20T00:51:05.456Z,0.30
2018-01-20T00:52:06.077Z,0.30
2018-01-20T00:53:11.020Z,0.20
2018-01-20T00:54:05.471Z,0.30
2018-01-20T00:55:06.015Z,0.20
2018-01-20T00:56:05.973Z,0.20
2018-01-20T00:57:06.027Z,0.30
2018-01-20T00:58:08.257Z,0.20
2018-01-20T00:59:05.759Z,0.20
2018-01-20T01:00:05.366Z,0.20
2018-01-20T01:01:06.030Z,0.30
2018-01-20T01:02:05.596Z,0.30
2018-01-20T01:03:05.155Z,0.20
2018-01-20T01:04:05.630Z,0.20
2018-01-20T01:05:05.437Z,0.20
2018-01-20T01:06:06.090Z,0.30
2018-01-20T01:07:07.829Z,0.20
2018-01-20T01:08:05.189Z,0.20
2018-01-20T01:09:05.929Z,0.20
2018-01-20T01:10:05.531Z,0.30
2018-01-20T01:11:05.950Z,0.20
2018-01-20T01:12:05.591Z,0.20
2018-01-20T01:13:06.100Z,0.20
2018-01-20T01:14:06.100Z,0.20
2018-01-20T01:15:05.550Z,0.20
2018-01-20T01:16:06.155Z,0.20
2018-01-20T01:17:08.408Z,0.20
2018-01-20T01:18:05.914Z,0.20
2018-01-20T01:19:05.445Z,0.20
2018-01-20T01:20:06.033Z,0.20
2018-01-20T01:21:08.121Z,0.20
2018-01-20T01:22:08.146Z,0.20
2018-01-20T01:23:05.641Z,0.20
2018-01-20T01:24:06.097Z,0.20
2018-01-20T01:25:05.672Z,0.10
2018-01-20T01:26:07.802Z,0.10
2018-01-20T01:27:05.803Z,0.10
2018-01-20T01:28:05.347Z,0.10
2018-01-20T01:29:06.053Z,0.10
2018-01-20T01:30:05.527Z,0.10
2018-01-20T01:31:06.242Z,0.10
2018-01-20T01:32:05.889Z,0.10
2018-01-20T01:33:05.405Z,0.10
2018-01-20T01:34:05.897Z,0.10
2018-01-20T01:35:08.046Z,0.10
2018-01-20T01:36:05.508Z,0.00
2018-01-20T01:37:08.676Z,0.00
2018-01-20T01:38:06.038Z,0.10
2018-01-20T01:39:08.170Z,0.10
2018-01-20T01:40:08.128Z,0.10
2018-01-20T01:41:05.419Z,0.10
2018-01-20T01:42:05.936Z,0.10
2018-01-20T01:43:05.454Z,0.10
2018-01-20T01:44:08.478Z,0.10
2018-01-20T01:45:05.902Z,0.10
2018-01-20T01:46:08.189Z,0.10
2018-01-20T01:47:08.208Z,0.10
2018-01-20T01:48:05.635Z,0.00
2018-01-20T01:49:06.185Z,0.10
2018-01-20T01:50:05.774Z,0.10
2018-01-20T01:51:05.754Z,0.10
2018-01-20T01:52:10.501Z,0.10
2018-01-20T01:53:05.858Z,0.10
2018-01-20T01:54:05.464Z,0.00
2018-01-20T01:55:06.022Z,0.10
2018-01-20T01:56:05.494Z,0.10
2018-01-20T01:57:11.026Z,0.00
2018-01-20T01:58:05.521Z,0.00
2018-01-20T01:59:11.104Z,0.00
2018-01-20T02:00:05.535Z,0.00
2018-01-20T02:01:06.094Z,0.00
2018-01-20T02:02:10.520Z,0.00
2018-01-20T02:03:05.705Z,0.00
2018-01-20T02:04:05.874Z,0.00
2018-01-20T02:05:05.330Z,0.00
2018-01-20T02:06:05.237Z,0.00
2018-01-20T02:07:08.348Z,0.00
2018-01-20T02:08:08.630Z,0.00
2018-01-20T02:09:08.502Z,0.00
2018-01-20T02:10:05.905Z,0.00
2018-01-20T02:11:05.686Z,0.00
2018-01-20T02:12:10.652Z,0.00
2018-01-20T02:13:11.137Z,0.00
2018-01-20T02:14:08.202Z,0.00
2018-01-20T02:15:05.541Z,0.00
2018-01-20T02:16:05.657Z,0.00
2018-01-20T02:17:05.351Z,0.10
2018-01-20T02:18:05.242Z,0.10
2018-01-20T02:19:08.417Z,0.10
2018-01-20T02:20:05.733Z,0.10
2018-01-20T02:21:05.187Z,0.10
2018-01-20T02:22:10.334Z,0.10
2018-01-20T02:23:05.649Z,0.10
2018-01-20T02:24:08.089Z,0.10
2018-01-20T02:25:07.779Z,0.10
2018-01-20T02:26:05.289Z,0.10
2018-01-20T02:27:08.393Z,0.10
2018-01-20T02:28:05.893Z,0.10
2018-01-20T02:29:05.683Z,0.10
2018-01-20T02:30:05.198Z,0.20
2018-01-20T02:31:05.760Z,0.20
2018-01-20T02:32:07.914Z,0.10
2018-01-20T02:33:05.278Z,0.10
2018-01-20T02:34:05.859Z,0.10
2018-01-20T02:35:06.472Z,0.10
2018-01-20T02:36:06.333Z,0.10
2018-01-20T02:37:08.445Z,0.10
2018-01-20T02:38:08.439Z,0.10
2018-01-20T02:39:05.898Z,0.10
2018-01-20T02:40:08.055Z,0.10
2018-01-20T02:41:08.002Z,0.10
2018-01-20T02:42:06.320Z,0.10
2018-01-20T02:43:08.424Z,0.10
2018-01-20T02:44:05.951Z,0.10
2018-01-20T02:45:05.406Z,0.10
2018-01-20T02:46:05.913Z,0.10
2018-01-20T02:47:05.543Z,0.10
2018-01-20T02:48:06.047Z,0.10
2018-01-20T02:49:05.771Z,0.10
2018-01-20T02:50:05.299Z,0.10
2018-01-20T02:51:05.930Z,0.10
2018-01-20T02:52:05.474Z,0.20
2018-01-20T02:53:11.125Z,0.10
2018-01-20T02:54:08.113Z,0.10
2018-01-20T02:55:08.151Z,0.10
2018-01-20T02:56:05.540Z,0.10
2018-01-20T02:57:11.051Z,0.20
2018-01-20T02:58:06.002Z,0.20
2018-01-20T02:59:13.171Z,0.20
2018-01-20T03:00:05.645Z,0.20
2018-01-20T03:01:05.174Z,0.20
2018-01-20T03:02:05.619Z,0.20
2018-01-20T03:03:05.324Z,0.20
2018-01-20T03:04:05.865Z,0.20
2018-01-20T03:05:05.646Z,0.20
2018-01-20T03:06:07.728Z,0.20
2018-01-20T03:07:08.635Z,0.20
2018-01-20T03:08:08.534Z,0.20
2018-01-20T03:09:05.895Z,0.20
2018-01-20T03:10:05.974Z,0.20
2018-01-20T03:11:05.569Z,0.20
2018-01-20T03:12:05.276Z,0.10
2018-01-20T03:13:05.747Z,0.20
2018-01-20T03:14:10.358Z,0.10
2018-01-20T03:15:05.860Z,0.10
2018-01-20T03:16:05.744Z,0.20
2018-01-20T03:17:05.270Z,0.10
2018-01-20T03:18:06.123Z,0.10
2018-01-20T03:19:08.222Z,0.10
2018-01-20T03:20:05.654Z,0.10
2018-01-20T03:21:05.318Z,0.10
2018-01-20T03:22:08.348Z,0.10
2018-01-20T03:23:05.609Z,0.10
2018-01-20T03:24:05.123Z,0.10
2018-01-20T03:25:08.352Z,0.10
2018-01-20T03:26:05.896Z,0.10
2018-01-20T03:27:05.424Z,0.10
2018-01-20T03:28:10.938Z,0.10
2018-01-20T03:29:10.338Z,0.10
2018-01-20T03:30:06.058Z,0.10
2018-01-20T03:31:08.258Z,0.10
2018-01-20T03:32:05.704Z,0.10
2018-01-20T03:33:10.418Z,0.10
2018-01-20T03:34:08.312Z,0.10
2018-01-20T03:35:05.755Z,0.10
2018-01-20T03:36:05.434Z,0.10
2018-01-20T03:37:06.150Z,0.10
2018-01-20T03:38:08.164Z,0.10
2018-01-20T03:39:05.580Z,0.10
2018-01-20T03:40:10.409Z,0.10
2018-01-20T03:41:05.734Z,0.10
2018-01-20T03:42:10.459Z,0.10
2018-01-20T03:43:05.833Z,0.10
2018-01-20T03:44:10.349Z,0.10
2018-01-20T03:45:10.697Z,0.10
2018-01-20T03:46:08.156Z,0.10
2018-01-20T03:47:05.651Z,0.10
2018-01-20T03:48:05.142Z,0.10
2018-01-20T03:49:11.191Z,0.00
2018-01-20T03:50:08.237Z,0.00
2018-01-20T03:51:05.562Z,0.00
2018-01-20T03:52:06.457Z,0.10
2018-01-20T03:53:05.805Z,0.00
2018-01-20T03:54:05.260Z,0.00
2018-01-20T03:55:05.990Z,0.10
2018-01-20T03:56:10.480Z,0.00
2018-01-20T03:57:06.145Z,0.00
2018-01-20T03:58:08.173Z,0.00
2018-01-20T03:59:05.658Z,0.00
2018-01-20T04:00:05.500Z,0.00
2018-01-20T04:01:08.557Z,-0.10
2018-01-20T04:02:07.770Z,-0.10
2018-01-20T04:03:05.962Z,-0.10
2018-01-20T04:04:07.895Z,-0.10
2018-01-20T04:05:05.181Z,-0.20
2018-01-20T04:06:05.825Z,-0.10
2018-01-20T04:07:05.408Z,-0.10
2018-01-20T04:08:05.873Z,-0.10
2018-01-20T04:09:10.368Z,-0.10
2018-01-20T04:10:05.711Z,-0.10
2018-01-20T04:11:07.826Z,-0.20
2018-01-20T04:12:05.280Z,-0.20
2018-01-20T04:13:05.784Z,-0.20
2018-01-20T04:14:07.966Z,-0.20
2018-01-20T04:15:05.466Z,-0.20
2018-01-20T04:16:06.242Z,-0.20
2018-01-20T04:17:08.636Z,-0.20
2018-01-20T04:18:08.544Z,-0.30
2018-01-20T04:19:06.027Z,-0.30
2018-01-20T04:20:05.620Z,-0.30
2018-01-20T04:21:05.293Z,-0.30
2018-01-20T04:22:05.614Z,-0.30
2018-01-20T04:23:15.192Z,-0.40
2018-01-20T04:24:05.571Z,-0.30
2018-01-20T04:25:10.137Z,-0.40
2018-01-20T04:26:08.055Z,-0.40
2018-01-20T04:27:05.386Z,-0.40
2018-01-20T04:28:05.843Z,-0.40
2018-01-20T04:29:05.511Z,-0.40
2018-01-20T04:30:08.745Z,-0.40
2018-01-20T04:31:05.795Z,-0.40
2018-01-20T04:32:05.970Z,-0.50
2018-01-20T04:33:05.918Z,-0.50
2018-01-20T04:34:08.038Z,-0.50
2018-01-20T04:35:05.382Z,-0.50
2018-01-20T04:36:05.913Z,-0.60
2018-01-20T04:37:07.986Z,-0.60
2018-01-20T04:38:07.939Z,-0.60
2018-01-20T04:39:07.961Z,-0.60
2018-01-20T04:40:05.412Z,-0.60
2018-01-20T04:41:06.039Z,-0.60
2018-01-20T04:42:05.771Z,-0.60
2018-01-20T04:43:05.145Z,-0.60
2018-01-20T04:44:05.744Z,-0.60
2018-01-20T04:45:05.300Z,-0.70
2018-01-20T04:46:05.768Z,-0.70
2018-01-20T04:47:05.550Z,-0.70
2018-01-20T04:48:05.989Z,-0.70
2018-01-20T04:49:08.309Z,-0.70
2018-01-20T04:50:05.705Z,-0.80
2018-01-20T04:51:05.299Z,-0.80
2018-01-20T04:52:08.437Z,-0.80
2018-01-20T04:53:08.454Z,-0.80
2018-01-20T04:54:05.829Z,-0.80
2018-01-20T04:55:05.534Z,-0.80
2018-01-20T04:56:06.406Z,-0.80
2018-01-20T04:57:08.568Z,-0.80
2018-01-20T04:58:08.449Z,-0.80
2018-01-20T04:59:05.798Z,-0.80
2018-01-20T05:00:05.322Z,-0.80
2018-01-20T05:01:08.763Z,-0.90
2018-01-20T05:02:08.662Z,-0.90
2018-01-20T05:03:08.721Z,-0.90
2018-01-20T05:04:06.412Z,-0.90
2018-01-20T05:05:08.397Z,-0.90
2018-01-20T05:06:08.328Z,-0.90
2018-01-20T05:07:05.675Z,-0.90
2018-01-20T05:08:05.132Z,-0.90
2018-01-20T05:09:08.176Z,-1.00
2018-01-20T05:10:05.515Z,-1.00
2018-01-20T05:11:06.164Z,-1.00
2018-01-20T05:12:05.770Z,-1.00
2018-01-20T05:13:13.075Z,-1.00
2018-01-20T05:14:07.989Z,-1.00
2018-01-20T05:15:10.406Z,-1.10
2018-01-20T05:16:05.769Z,-1.00
2018-01-20T05:17:06.312Z,-1.00
2018-01-20T05:18:08.585Z,-1.10
2018-01-20T05:19:08.446Z,-1.10
2018-01-20T05:20:05.921Z,-1.10
2018-01-20T05:21:05.401Z,-1.10
2018-01-20T05:22:05.876Z,-1.10
2018-01-20T05:23:08.033Z,-1.10
2018-01-20T05:24:05.529Z,-1.10
2018-01-20T05:25:06.665Z,-1.10
2018-01-20T05:26:08.560Z,-1.20
2018-01-20T05:27:06.190Z,-1.20
2018-01-20T05:28:08.412Z,-1.20
2018-01-20T05:29:05.728Z,-1.20
2018-01-20T05:30:05.227Z,-1.20
2018-01-20T05:31:08.267Z,-1.20
2018-01-20T05:32:07.527Z,-1.20
2018-01-20T05:33:06.080Z,-1.20
2018-01-20T05:34:05.853Z,-1.20
2018-01-20T05:35:05.734Z,-1.30
2018-01-20T05:36:05.247Z,-1.30
2018-01-20T05:37:06.031Z,-1.20
2018-01-20T05:38:05.508Z,-1.30
2018-01-20T05:39:11.149Z,-1.30
2018-01-20T05:40:10.458Z,-1.30
2018-01-20T05:41:08.397Z,-1.30
2018-01-20T05:42:08.429Z,-1.30
2018-01-20T05:43:10.870Z,-1.30
2018-01-20T05:44:05.365Z,-1.30
2018-01-20T05:45:06.048Z,-1.30
2018-01-20T05:46:05.485Z,-1.30
2018-01-20T05:47:05.108Z,-1.30
2018-01-20T05:48:06.169Z,-1.30
2018-01-20T05:49:05.700Z,-1.30
2018-01-20T05:50:05.431Z,-1.30
2018-01-20T05:51:05.827Z,-1.30
2018-01-20T05:52:10.363Z,-1.30
2018-01-20T05:53:05.675Z,-1.30
2018-01-20T05:54:05.170Z,-1.30
2018-01-20T05:55:06.115Z,-1.30
2018-01-20T05:56:08.229Z,-1.30
2018-01-20T05:57:07.839Z,-1.30
2018-01-20T05:58:10.226Z,-1.30
2018-01-20T05:59:08.053Z,-1.30
2018-01-20T06:00:05.451Z,-1.30
2018-01-20T06:01:06.068Z,-1.30
2018-01-20T06:02:08.382Z,-1.40
2018-01-20T06:03:08.218Z,-1.40
2018-01-20T06:04:05.918Z,-1.40
2018-01-20T06:05:12.971Z,-1.40
2018-01-20T06:06:10.316Z,-1.40
2018-01-20T06:07:10.834Z,-1.40
2018-01-20T06:08:06.143Z,-1.40
2018-01-20T06:09:08.221Z,-1.40
2018-01-20T06:10:08.057Z,-1.40
2018-01-20T06:11:05.875Z,-1.50
2018-01-20T06:12:05.259Z,-1.40
2018-01-20T06:13:06.021Z,-1.40
2018-01-20T06:14:06.128Z,-1.40
2018-01-20T06:15:08.107Z,-1.40
2018-01-20T06:16:05.490Z,-1.40
2018-01-20T06:17:05.812Z,-1.40
2018-01-20T06:18:05.485Z,-0.60
2018-01-20T06:19:08.794Z,-1.40
2018-01-20T06:20:05.665Z,-1.40
2018-01-20T06:21:05.148Z,-1.40
2018-01-20T06:22:08.272Z,-1.30
2018-01-20T06:23:08.164Z,-1.30
2018-01-20T06:24:08.182Z,-1.30
2018-01-20T06:25:05.540Z,-1.30
2018-01-20T06:26:05.587Z,-1.20
2018-01-20T06:27:05.211Z,-1.30
2018-01-20T06:28:06.064Z,-1.20
2018-01-20T06:29:08.294Z,-1.20
2018-01-20T06:30:10.859Z,-1.20
2018-01-20T06:31:05.269Z,-1.10
2018-01-20T06:32:10.908Z,-1.10
2018-01-20T06:33:05.253Z,-1.10
2018-01-20T06:34:06.081Z,-1.10
2018-01-20T06:35:10.453Z,-1.10
2018-01-20T06:36:05.762Z,-1.10
2018-01-20T06:37:05.434Z,-1.10
2018-01-20T06:38:05.978Z,-1.10
2018-01-20T06:39:05.569Z,-1.20
2018-01-20T06:40:06.065Z,-1.20
2018-01-20T06:41:05.541Z,-1.30
2018-01-20T06:42:06.101Z,-1.30
2018-01-20T06:43:05.545Z,-1.30
2018-01-20T06:44:07.946Z,-1.30
2018-01-20T06:45:05.335Z,-1.30
2018-01-20T06:46:05.857Z,-1.40
2018-01-20T06:47:05.643Z,-1.40
2018-01-20T06:48:06.087Z,-1.40
2018-01-20T06:49:08.088Z,-1.50
2018-01-20T06:50:05.660Z,-1.50
2018-01-20T06:51:07.682Z,-1.50
2018-01-20T06:52:11.117Z,-1.60
2018-01-20T06:53:05.359Z,-1.50
2018-01-20T06:54:05.803Z,-1.50
2018-01-20T06:55:08.196Z,-1.50
2018-01-20T06:56:05.544Z,-1.60
2018-01-20T06:57:05.958Z,-1.60
2018-01-20T06:58:13.146Z,-1.60
2018-01-20T06:59:10.561Z,-1.60
2018-01-20T07:00:08.389Z,-1.60
2018-01-20T07:01:13.349Z,-1.60
2018-01-20T07:02:13.435Z,-1.60
2018-01-20T07:03:05.776Z,-1.60
2018-01-20T07:04:10.369Z,-1.60
2018-01-20T07:05:05.726Z,-1.60
2018-01-20T07:06:05.229Z,-1.60
2018-01-20T07:07:05.716Z,-1.60
2018-01-20T07:08:05.338Z,-1.60
2018-01-20T07:09:06.139Z,-1.60
2018-01-20T07:10:05.688Z,-1.60
2018-01-20T07:11:06.121Z,-1.60
2018-01-20T07:12:05.630Z,-1.60
2018-01-20T07:13:07.773Z,-1.60
2018-01-20T07:14:07.633Z,-1.60
2018-01-20T07:15:08.523Z,-1.60
2018-01-20T07:16:05.960Z,-1.60
2018-01-20T07:17:10.773Z,-1.60
2018-01-20T07:18:05.133Z,-1.60
2018-01-20T07:19:11.041Z,-1.60
2018-01-20T07:20:07.913Z,-1.60
2018-01-20T07:21:05.358Z,-1.60
2018-01-20T07:22:05.846Z,-1.60
2018-01-20T07:23:05.539Z,-1.60
2018-01-20T07:24:08.597Z,-1.60
2018-01-20T07:25:05.899Z,-1.60
2018-01-20T07:26:05.367Z,-1.60
2018-01-20T07:27:10.935Z,-1.60
2018-01-20T07:28:05.410Z,-1.60
2018-01-20T07:29:08.632Z,-1.60
2018-01-20T07:30:06.064Z,-1.60
2018-01-20T07:31:05.673Z,-1.60
2018-01-20T07:32:05.418Z,-1.60
2018-01-20T07:33:05.901Z,-1.60
2018-01-20T07:34:05.452Z,-1.60
2018-01-20T07:35:05.894Z,-1.60
2018-01-20T07:36:05.392Z,-1.50
2018-01-20T07:37:05.195Z,-1.50
2018-01-20T07:38:11.048Z,-1.50
2018-01-20T07:39:05.464Z,-1.50
2018-01-20T07:40:05.937Z,-1.50
2018-01-20T07:41:05.640Z,-1.50
2018-01-20T07:42:06.139Z,-1.50
2018-01-20T07:43:10.829Z,-1.50
2018-01-20T07:44:12.903Z,-1.50
2018-01-20T07:45:10.371Z,-1.60
2018-01-20T07:46:05.322Z,-1.50
2018-01-20T07:47:10.959Z,-1.50
2018-01-20T07:48:05.390Z,-1.60
2018-01-20T07:49:08.507Z,-1.60
2018-01-20T07:50:05.824Z,-1.60
2018-01-20T07:51:05.968Z,-1.50
2018-01-20T07:52:10.615Z,-1.50
2018-01-20T07:53:05.866Z,-1.60
2018-01-20T07:54:10.476Z,-1.60
2018-01-20T07:55:05.897Z,-1.50
2018-01-20T07:56:05.584Z,-1.50
2018-01-20T07:57:10.401Z,-1.50
2018-01-20T07:58:06.055Z,-1.60
2018-01-20T07:59:08.147Z,-1.50
2018-01-20T08:00:05.511Z,-1.50
2018-01-20T08:01:08.633Z,-1.50
2018-01-20T08:02:05.997Z,-1.50
2018-01-20T08:03:05.459Z,-1.50
2018-01-20T08:04:08.602Z,-1.40
2018-01-20T08:05:10.996Z,-1.40
2018-01-20T08:06:05.517Z,-1.40
2018-01-20T08:07:05.830Z,-1.40
2018-01-20T08:08:05.412Z,-1.40
2018-01-20T08:09:05.299Z,-1.40
2018-01-20T08:10:08.673Z,-1.30
2018-01-20T08:11:06.007Z,-1.30
2018-01-20T08:12:05.629Z,-1.30
2018-01-20T08:13:05.228Z,-1.20
2018-01-20T08:14:08.581Z,-1.20
2018-01-20T08:15:08.440Z,-1.10
2018-01-20T08:16:13.556Z,-1.00
2018-01-20T08:17:05.914Z,-1.00
2018-01-20T08:18:06.441Z,-1.00
2018-01-20T08:19:08.488Z,-0.90
2018-01-20T08:20:11.122Z,-0.80
2018-01-20T08:21:05.349Z,-0.90
2018-01-20T08:22:05.960Z,-0.80
2018-01-20T08:23:05.428Z,-0.70
2018-01-20T08:24:05.973Z,-0.70
2018-01-20T08:25:06.401Z,-0.70
2018-01-20T08:26:10.941Z,-0.70
2018-01-20T08:30:06.997Z,-0.50
2018-01-20T08:32:05.211Z,-0.50
2018-01-20T08:34:07.889Z,-0.50
2018-01-20T08:35:05.363Z,-0.50
2018-01-20T08:36:05.956Z,-0.50
2018-01-20T08:37:05.587Z,-0.50
2018-01-20T08:38:06.053Z,-0.50
2018-01-20T08:39:05.830Z,-0.50
2018-01-20T08:40:05.484Z,-0.50
2018-01-20T08:41:06.569Z,-0.50
2018-01-20T08:42:05.936Z,-0.40
2018-01-20T08:43:05.468Z,-0.40
2018-01-20T08:44:08.509Z,-0.40
2018-01-20T08:45:05.938Z,-0.40
2018-01-20T08:46:07.924Z,-0.30
2018-01-20T08:47:10.361Z,-0.30
2018-01-20T08:48:07.879Z,-0.20
2018-01-20T08:49:05.285Z,-0.20
2018-01-20T08:50:08.000Z,-0.20
2018-01-20T08:51:05.492Z,-0.20
2018-01-20T08:52:06.153Z,-0.10
2018-01-20T08:53:05.813Z,0.00
2018-01-20T08:54:10.326Z,-0.10
2018-01-20T08:55:08.248Z,0.00
2018-01-20T08:56:13.223Z,0.00
2018-01-20T08:57:10.689Z,0.00
2018-01-20T08:58:05.993Z,0.10
2018-01-20T08:59:08.018Z,0.10
2018-01-20T09:00:05.179Z,0.10
2018-01-20T09:01:08.448Z,0.20
2018-01-20T09:02:13.467Z,0.20
2018-01-20T09:03:05.830Z,0.20
2018-01-20T09:04:05.634Z,0.30
2018-01-20T09:05:10.491Z,0.40
2018-01-20T09:06:05.870Z,0.40
2018-01-20T09:07:05.291Z,0.50
2018-01-20T09:08:05.344Z,0.50
2018-01-20T09:09:06.123Z,0.50
2018-01-20T09:10:10.634Z,0.50
2018-01-20T09:11:05.884Z,0.60
2018-01-20T09:12:05.417Z,0.60
2018-01-20T09:13:05.903Z,0.60
2018-01-20T09:14:05.601Z,0.70
2018-01-20T09:15:05.427Z,0.70
2018-01-20T09:16:08.436Z,0.80
2018-01-20T09:17:10.983Z,0.80
2018-01-20T09:18:05.399Z,0.80
2018-01-20T09:19:07.728Z,0.90
2018-01-20T09:20:06.061Z,0.80
2018-01-20T09:21:08.712Z,0.90
2018-01-20T09:22:11.240Z,0.90
2018-01-20T09:23:05.709Z,1.00
2018-01-20T09:24:05.629Z,1.00
2018-01-20T09:25:05.888Z,1.00
2018-01-20T09:26:05.331Z,1.10
2018-01-20T09:27:06.260Z,1.10
2018-01-20T09:28:05.844Z,1.10
2018-01-20T09:29:15.581Z,1.20
2018-01-20T09:30:06.282Z,1.20
2018-01-20T09:31:05.680Z,1.30
2018-01-20T09:32:05.835Z,1.30
2018-01-20T09:33:05.434Z,1.30
2018-01-20T09:34:05.365Z,1.30
2018-01-20T09:35:05.988Z,1.40
2018-01-20T09:36:05.389Z,1.40
2018-01-20T09:37:08.642Z,1.50
2018-01-20T09:38:06.231Z,1.50
2018-01-20T09:39:05.633Z,1.50
2018-01-20T09:40:08.669Z,1.60
2018-01-20T09:41:06.095Z,1.60
2018-01-20T09:42:05.472Z,1.60
2018-01-20T09:43:08.455Z,1.70
2018-01-20T09:44:05.957Z,1.70
2018-01-20T09:45:05.430Z,1.70
2018-01-20T09:46:06.026Z,1.80
2018-01-20T09:47:10.601Z,1.80
2018-01-20T09:48:08.443Z,1.90
2018-01-20T09:49:07.909Z,1.90
2018-01-20T09:50:10.461Z,1.90
2018-01-20T09:51:05.788Z,1.90
2018-01-20T09:52:05.293Z,2.00
2018-01-20T09:53:08.254Z,2.00
2018-01-20T09:54:10.708Z,2.10
2018-01-20T09:55:06.159Z,2.10
2018-01-20T09:56:05.626Z,2.10
2018-01-20T09:57:05.402Z,2.10
2018-01-20T09:58:05.873Z,2.20
2018-01-20T09:59:08.256Z,2.20
2018-01-20T10:00:05.651Z,2.20
2018-01-20T10:01:05.279Z,2.20
2018-01-20T10:02:05.699Z,2.20
2018-01-20T10:03:10.278Z,2.10
2018-01-20T10:04:05.926Z,2.20
2018-01-20T10:05:05.668Z,2.20
2018-01-20T10:06:05.250Z,2.20
2018-01-20T10:07:05.827Z,2.20
2018-01-20T10:08:08.053Z,2.20
2018-01-20T10:09:10.540Z,2.20
2018-01-20T10:10:08.469Z,2.30
2018-01-20T10:11:08.464Z,2.30
2018-01-20T10:12:10.873Z,2.30
2018-01-20T10:13:05.212Z,2.30
2018-01-20T10:14:08.205Z,2.50
2018-01-20T10:15:10.620Z,2.50
2018-01-20T10:16:05.820Z,2.50
2018-01-20T10:17:08.109Z,2.50
2018-01-20T10:18:10.550Z,2.60
2018-01-20T10:19:08.614Z,2.60
2018-01-20T10:20:08.678Z,2.70
2018-01-20T10:21:06.132Z,2.60
2018-01-20T10:22:05.876Z,2.70
2018-01-20T10:23:05.200Z,2.70
2018-01-20T10:24:05.191Z,2.70
2018-01-20T10:25:05.296Z,2.80
2018-01-20T10:26:05.444Z,2.80
2018-01-20T10:27:06.065Z,2.70
2018-01-20T10:28:05.876Z,2.70
2018-01-20T10:29:10.406Z,2.70
2018-01-20T10:30:05.883Z,2.70
2018-01-20T10:31:05.396Z,2.70
2018-01-20T10:32:06.182Z,2.70
2018-01-20T10:33:08.547Z,2.80
2018-01-20T10:34:08.526Z,2.70
2018-01-20T10:35:10.975Z,2.70
2018-01-20T10:36:07.904Z,2.70
2018-01-20T10:37:07.851Z,2.80
2018-01-20T10:38:05.230Z,2.80
2018-01-20T10:39:08.419Z,2.90
2018-01-20T10:40:05.966Z,2.90
2018-01-20T10:41:05.465Z,2.90
2018-01-20T10:42:05.984Z,3.00
2018-01-20T10:43:08.537Z,3.00
2018-01-20T10:44:08.398Z,3.10
2018-01-20T10:45:05.776Z,3.00
2018-01-20T10:46:05.536Z,3.10
2018-01-20T10:47:11.021Z,3.00
2018-01-20T10:48:10.584Z,3.00
2018-01-20T10:49:06.082Z,3.00
2018-01-20T10:50:10.746Z,3.10
2018-01-20T10:51:11.093Z,3.00
2018-01-20T10:52:05.359Z,3.10
2018-01-20T10:53:05.259Z,3.10
2018-01-20T10:54:05.291Z,3.10
2018-01-20T10:55:05.814Z,3.00
2018-01-20T10:56:05.307Z,3.00
2018-01-20T10:57:05.775Z,3.00
2018-01-20T10:58:05.949Z,3.10
2018-01-20T10:59:06.414Z,3.10
2018-01-20T11:00:06.072Z,3.10
2018-01-20T11:01:05.540Z,3.00
2018-01-20T11:02:06.391Z,3.00
2018-01-20T11:03:10.831Z,3.00
2018-01-20T11:04:05.162Z,3.00
2018-01-20T11:05:06.192Z,3.00
2018-01-20T11:06:10.851Z,3.00
2018-01-20T11:07:05.364Z,3.00
2018-01-20T11:08:10.268Z,2.90
2018-01-20T11:09:05.399Z,2.90
2018-01-20T11:10:07.807Z,3.00
2018-01-20T11:11:05.151Z,3.00
2018-01-20T11:12:06.018Z,3.00
2018-01-20T11:13:05.613Z,3.00
2018-01-20T11:14:13.123Z,3.10
2018-01-20T11:15:05.582Z,3.10
2018-01-20T11:16:06.073Z,3.20
2018-01-20T11:17:05.490Z,3.20
2018-01-20T11:18:10.216Z,3.40
2018-01-20T11:19:06.461Z,3.30
2018-01-20T11:20:06.197Z,3.40
2018-01-20T11:21:05.767Z,3.40
2018-01-20T11:22:05.413Z,3.50
2018-01-20T11:23:05.192Z,3.50
2018-01-20T11:24:10.770Z,3.50
2018-01-20T11:25:07.722Z,3.50
2018-01-20T11:26:08.636Z,3.60
2018-01-20T11:27:08.544Z,3.60
2018-01-20T11:28:06.214Z,3.50
2018-01-20T11:29:05.679Z,3.60
2018-01-20T11:30:05.439Z,3.50
2018-01-20T11:31:06.065Z,3.60
2018-01-20T11:32:07.980Z,3.50
2018-01-20T11:33:05.420Z,3.50
2018-01-20T11:34:10.411Z,3.50
2018-01-20T11:35:08.304Z,3.50
2018-01-20T11:36:06.732Z,3.50
2018-01-20T11:37:05.305Z,3.50
2018-01-20T11:38:05.168Z,3.50
2018-01-20T11:39:06.147Z,3.50
2018-01-20T11:40:08.203Z,3.50
2018-01-20T11:41:05.569Z,3.50
2018-01-20T11:42:08.651Z,3.50
2018-01-20T11:43:11.045Z,3.40
2018-01-20T11:44:05.526Z,3.40
2018-01-20T11:45:06.221Z,3.40
2018-01-20T11:46:05.784Z,3.40
2018-01-20T11:47:07.936Z,3.40
2018-01-20T11:48:05.379Z,3.30
2018-01-20T11:49:06.185Z,3.40
2018-01-20T11:50:10.831Z,3.30
2018-01-20T11:51:06.037Z,3.30
2018-01-20T11:52:10.774Z,3.30
2018-01-20T11:53:05.146Z,3.20
2018-01-20T11:54:06.042Z,3.20
2018-01-20T11:55:08.118Z,3.20
2018-01-20T11:56:05.466Z,3.20
2018-01-20T11:57:05.442Z,3.20
2018-01-20T11:58:05.497Z,3.20
2018-01-20T11:59:05.271Z,3.10
2018-01-20T12:00:05.957Z,3.10
2018-01-20T12:01:08.076Z,3.10
2018-01-20T12:02:05.438Z,3.10
2018-01-20T12:03:08.190Z,3.10
2018-01-20T12:04:10.733Z,3.10
2018-01-20T12:05:08.704Z,3.10
2018-01-20T12:06:06.214Z,3.10
2018-01-20T12:07:08.198Z,3.10
2018-01-20T12:08:05.547Z,3.10
2018-01-20T12:09:08.667Z,3.10
2018-01-20T12:10:08.686Z,3.10
2018-01-20T12:11:08.519Z,3.10
2018-01-20T12:12:06.055Z,3.10
2018-01-20T12:13:08.065Z,3.10
2018-01-20T12:14:05.320Z,3.10
2018-01-20T12:15:06.227Z,3.10
2018-01-20T12:16:08.269Z,3.10
2018-01-20T12:17:05.755Z,3.10
2018-01-20T12:18:05.742Z,3.10
2018-01-20T12:19:10.323Z,3.10
2018-01-20T12:20:05.730Z,3.10
2018-01-20T12:21:05.250Z,3.10
2018-01-20T12:22:05.821Z,3.10
2018-01-20T12:23:05.442Z,3.10
2018-01-20T12:24:07.716Z,3.10
2018-01-20T12:25:08.743Z,3.10
2018-01-20T12:26:08.628Z,3.10
2018-01-20T12:27:06.026Z,3.10
2018-01-20T12:28:08.340Z,3.10
2018-01-20T12:29:08.274Z,3.10
2018-01-20T12:30:10.661Z,3.10
2018-01-20T12:31:06.043Z,3.10
2018-01-20T12:32:06.514Z,3.10
2018-01-20T12:33:06.297Z,3.10
2018-01-20T12:34:08.436Z,3.10
2018-01-20T12:35:08.282Z,3.10
2018-01-20T12:36:05.686Z,3.10
2018-01-20T12:37:05.219Z,3.10
2018-01-20T12:38:05.865Z,3.00
2018-01-20T12:39:05.364Z,3.10
2018-01-20T12:40:08.041Z,3.10
2018-01-20T12:41:08.095Z,3.00
2018-01-20T12:42:07.971Z,3.00
2018-01-20T12:43:07.942Z,3.00
2018-01-20T12:44:07.759Z,3.00
2018-01-20T12:45:06.094Z,3.00
2018-01-20T12:46:08.070Z,3.00
2018-01-20T12:47:05.382Z,3.00
2018-01-20T12:48:05.403Z,3.00
2018-01-20T12:49:05.203Z,3.00
2018-01-20T12:50:05.177Z,3.00
2018-01-20T12:51:05.377Z,3.00
2018-01-20T12:52:08.445Z,3.00
2018-01-20T12:53:15.545Z,3.00
2018-01-20T12:54:05.908Z,3.00
2018-01-20T12:55:05.657Z,3.00
2018-01-20T12:56:05.263Z,3.00
2018-01-20T12:57:05.156Z,3.00
2018-01-20T12:58:05.211Z,3.00
2018-01-20T12:59:06.022Z,3.00
2018-01-20T13:00:10.565Z,3.00
2018-01-20T13:01:05.495Z,3.00
2018-01-20T13:02:10.494Z,3.00
2018-01-20T13:03:10.428Z,3.00
2018-01-20T13:04:05.848Z,3.00
2018-01-20T13:05:05.325Z,3.00
2018-01-20T13:06:07.740Z,3.10
2018-01-20T13:07:06.263Z,3.00
2018-01-20T13:08:06.050Z,3.00
2018-01-20T13:09:05.490Z,3.00
2018-01-20T13:10:07.935Z,3.10
2018-01-20T13:11:10.348Z,3.10
2018-01-20T13:12:05.697Z,3.10
2018-01-20T13:13:07.870Z,3.20